sensor_id;sensor_type;location;lat;lon;timestamp;temperature;humidity
37240;DHT22;23130;48.760;9.178;2023-03-16T00:01:13;-0.20;99.90
37240;DHT22;23130;48.760;9.178;2023-03-16T00:03:39;-0.20;99.90
37240;DHT22;23130;48.760;9.178;2023-03-16T00:06:05;-0.20;99.90
37240;DHT22;23130;48.760;9.178;2023-03-16T00:08:30;-0.20;99.90
37240;DHT22;23130;48.760;9.178;2023-03-16T00:10:56;-0.10;99.90
37240;DHT22;23130;48.760;9.178;2023-03-16T00:13:23;-0.10;99.90
37240;DHT22;23130;48.760;9.178;2023-03-16T00:15:57;-0.10;99.90
37240;DHT22;23130;48.760;9.178;2023-03-16T00:18:26;-0.20;99.90
37240;DHT22;23130;48.760;9.178;2023-03-16T00:20:53;-0.20;99.90
37240;DHT22;23130;48.760;9.178;2023-03-16T00:23:20;-0.30;99.90
37240;DHT22;23130;48.760;9.178;2023-03-16T00:25:53;-0.30;99.90
37240;DHT22;23130;48.760;9.178;2023-03-16T00:28:19;-0.40;99.90
37240;DHT22;23130;48.760;9.178;2023-03-16T00:30:46;-0.50;99.90
37240;DHT22;23130;48.760;9.178;2023-03-16T00:33:12;-0.60;99.90
37240;DHT22;23130;48.760;9.178;2023-03-16T00:35:38;-0.70;99.90
37240;DHT22;23130;48.760;9.178;2023-03-16T00:38:04;-0.70;99.90
37240;DHT22;23130;48.760;9.178;2023-03-16T00:40:29;-0.70;99.90
37240;DHT22;23130;48.760;9.178;2023-03-16T00:42:55;-0.70;99.90
37240;DHT22;23130;48.760;9.178;2023-03-16T00:45:21;-0.70;99.90
37240;DHT22;23130;48.760;9.178;2023-03-16T00:47:48;-0.80;99.90
37240;DHT22;23130;48.760;9.178;2023-03-16T00:50:14;-0.80;99.90
37240;DHT22;23130;48.760;9.178;2023-03-16T00:52:40;-0.80;99.90
37240;DHT22;23130;48.760;9.178;2023-03-16T00:55:07;-0.90;99.90
37240;DHT22;23130;48.760;9.178;2023-03-16T00:57:32;-0.90;99.90
37240;DHT22;23130;48.760;9.178;2023-03-16T00:59:58;-0.90;99.90
37240;DHT22;23130;48.760;9.178;2023-03-16T01:02:24;-0.90;99.90
37240;DHT22;23130;48.760;9.178;2023-03-16T01:04:51;-0.90;99.90
37240;DHT22;23130;48.760;9.178;2023-03-16T01:07:19;-0.90;99.90
37240;DHT22;23130;48.760;9.178;2023-03-16T01:09:46;-0.80;99.90
37240;DHT22;23130;48.760;9.178;2023-03-16T01:12:17;-0.80;99.90
37240;DHT22;23130;48.760;9.178;2023-03-16T01:14:43;-0.80;99.90
37240;DHT22;23130;48.760;9.178;2023-03-16T01:17:10;-0.90;99.90
37240;DHT22;23130;48.760;9.178;2023-03-16T01:19:38;-0.90;99.90
37240;DHT22;23130;48.760;9.178;2023-03-16T01:22:06;-0.90;99.90
37240;DHT22;23130;48.760;9.178;2023-03-16T01:24:34;-1.00;99.90
37240;DHT22;23130;48.760;9.178;2023-03-16T01:27:00;-1.00;99.90
37240;DHT22;23130;48.760;9.178;2023-03-16T01:29:26;-1.00;99.90
37240;DHT22;23130;48.760;9.178;2023-03-16T01:31:52;-1.00;99.90
37240;DHT22;23130;48.760;9.178;2023-03-16T01:34:17;-1.00;99.90
37240;DHT22;23130;48.760;9.178;2023-03-16T01:36:46;-1.00;99.90
37240;DHT22;23130;48.760;9.178;2023-03-16T01:39:12;-1.00;99.90
37240;DHT22;23130;48.760;9.178;2023-03-16T01:41:39;-0.80;99.90
37240;DHT22;23130;48.760;9.178;2023-03-16T01:44:09;-0.70;99.90
37240;DHT22;23130;48.760;9.178;2023-03-16T01:46:36;-0.70;99.90
37240;DHT22;23130;48.760;9.178;2023-03-16T01:51:41;-0.60;99.90
37240;DHT22;23130;48.760;9.178;2023-03-16T01:59:23;-0.60;99.90
37240;DHT22;23130;48.760;9.178;2023-03-16T02:01:50;-0.50;99.90
37240;DHT22;23130;48.760;9.178;2023-03-16T02:07:12;-0.50;99.90
37240;DHT22;23130;48.760;9.178;2023-03-16T02:09:43;-0.60;99.90
37240;DHT22;23130;48.760;9.178;2023-03-16T02:12:14;-0.60;99.90
37240;DHT22;23130;48.760;9.178;2023-03-16T02:14:45;-0.50;99.90
37240;DHT22;23130;48.760;9.178;2023-03-16T02:17:12;-0.50;99.90
37240;DHT22;23130;48.760;9.178;2023-03-16T02:19:54;-0.50;99.90
37240;DHT22;23130;48.760;9.178;2023-03-16T02:22:20;-0.60;99.90
37240;DHT22;23130;48.760;9.178;2023-03-16T02:24:52;-0.70;99.90
37240;DHT22;23130;48.760;9.178;2023-03-16T02:30:27;-0.80;99.90
37240;DHT22;23130;48.760;9.178;2023-03-16T02:32:53;-0.70;99.90
37240;DHT22;23130;48.760;9.178;2023-03-16T02:35:19;-0.80;99.90
37240;DHT22;23130;48.760;9.178;2023-03-16T02:37:45;-0.80;99.90
37240;DHT22;23130;48.760;9.178;2023-03-16T02:40:30;-0.80;99.90
37240;DHT22;23130;48.760;9.178;2023-03-16T02:43:00;-0.80;99.90
37240;DHT22;23130;48.760;9.178;2023-03-16T02:45:42;-0.80;99.90
37240;DHT22;23130;48.760;9.178;2023-03-16T02:48:15;-0.80;99.90
37240;DHT22;23130;48.760;9.178;2023-03-16T02:50:50;-0.80;99.90
37240;DHT22;23130;48.760;9.178;2023-03-16T02:53:17;-0.80;99.90
37240;DHT22;23130;48.760;9.178;2023-03-16T02:55:43;-0.80;99.90
37240;DHT22;23130;48.760;9.178;2023-03-16T02:58:10;-0.90;99.90
37240;DHT22;23130;48.760;9.178;2023-03-16T03:00:36;-1.00;99.90
37240;DHT22;23130;48.760;9.178;2023-03-16T03:03:03;-1.00;99.90
37240;DHT22;23130;48.760;9.178;2023-03-16T03:05:29;-1.00;99.90
37240;DHT22;23130;48.760;9.178;2023-03-16T03:07:55;-1.00;99.90
37240;DHT22;23130;48.760;9.178;2023-03-16T03:10:21;-1.00;99.90
37240;DHT22;23130;48.760;9.178;2023-03-16T03:12:47;-1.10;99.90
37240;DHT22;23130;48.760;9.178;2023-03-16T03:15:15;-1.10;99.90
37240;DHT22;23130;48.760;9.178;2023-03-16T03:17:40;-1.20;99.90
37240;DHT22;23130;48.760;9.178;2023-03-16T03:20:08;-1.20;99.90
37240;DHT22;23130;48.760;9.178;2023-03-16T03:22:46;-1.10;99.90
37240;DHT22;23130;48.760;9.178;2023-03-16T03:25:13;-1.00;99.90
37240;DHT22;23130;48.760;9.178;2023-03-16T03:27:41;-1.00;99.90
37240;DHT22;23130;48.760;9.178;2023-03-16T03:30:09;-0.90;99.90
37240;DHT22;23130;48.760;9.178;2023-03-16T03:32:35;-0.90;99.90
37240;DHT22;23130;48.760;9.178;2023-03-16T03:35:00;-0.80;99.90
37240;DHT22;23130;48.760;9.178;2023-03-16T03:37:26;-0.90;99.90
37240;DHT22;23130;48.760;9.178;2023-03-16T03:39:53;-0.90;99.90
37240;DHT22;23130;48.760;9.178;2023-03-16T03:42:18;-0.90;99.90
37240;DHT22;23130;48.760;9.178;2023-03-16T03:44:44;-1.00;99.90
37240;DHT22;23130;48.760;9.178;2023-03-16T03:47:09;-1.10;99.90
37240;DHT22;23130;48.760;9.178;2023-03-16T03:49:35;-1.20;99.90
37240;DHT22;23130;48.760;9.178;2023-03-16T03:52:00;-1.30;99.90
37240;DHT22;23130;48.760;9.178;2023-03-16T03:54:29;-1.40;99.90
37240;DHT22;23130;48.760;9.178;2023-03-16T03:56:55;-1.50;99.90
37240;DHT22;23130;48.760;9.178;2023-03-16T03:59:21;-1.50;99.90
37240;DHT22;23130;48.760;9.178;2023-03-16T04:01:47;-1.50;99.90
37240;DHT22;23130;48.760;9.178;2023-03-16T04:04:14;-1.50;99.90
37240;DHT22;23130;48.760;9.178;2023-03-16T04:06:39;-1.50;99.90
37240;DHT22;23130;48.760;9.178;2023-03-16T04:09:06;-1.30;99.90
37240;DHT22;23130;48.760;9.178;2023-03-16T04:11:32;-1.10;99.90
37240;DHT22;23130;48.760;9.178;2023-03-16T04:13:58;-1.10;99.90
37240;DHT22;23130;48.760;9.178;2023-03-16T04:16:23;-1.00;99.90
37240;DHT22;23130;48.760;9.178;2023-03-16T04:18:54;-1.10;99.90
37240;DHT22;23130;48.760;9.178;2023-03-16T04:21:20;-1.00;99.90
37240;DHT22;23130;48.760;9.178;2023-03-16T04:23:47;-1.10;99.90
37240;DHT22;23130;48.760;9.178;2023-03-16T04:26:13;-1.00;99.90
37240;DHT22;23130;48.760;9.178;2023-03-16T04:28:39;-1.10;99.90
37240;DHT22;23130;48.760;9.178;2023-03-16T04:31:08;-1.10;99.90
37240;DHT22;23130;48.760;9.178;2023-03-16T04:33:36;-1.10;99.90
37240;DHT22;23130;48.760;9.178;2023-03-16T04:36:03;-1.00;99.90
37240;DHT22;23130;48.760;9.178;2023-03-16T04:38:29;-1.10;99.90
37240;DHT22;23130;48.760;9.178;2023-03-16T04:40:59;-1.10;99.90
37240;DHT22;23130;48.760;9.178;2023-03-16T04:43:25;-1.20;99.90
37240;DHT22;23130;48.760;9.178;2023-03-16T04:45:51;-1.20;99.90
37240;DHT22;23130;48.760;9.178;2023-03-16T04:48:16;-1.30;99.90
37240;DHT22;23130;48.760;9.178;2023-03-16T04:50:42;-1.30;99.90
37240;DHT22;23130;48.760;9.178;2023-03-16T04:53:08;-1.30;99.90
37240;DHT22;23130;48.760;9.178;2023-03-16T04:55:33;-1.40;99.90
37240;DHT22;23130;48.760;9.178;2023-03-16T04:57:59;-1.40;99.90
37240;DHT22;23130;48.760;9.178;2023-03-16T05:00:26;-1.30;99.90
37240;DHT22;23130;48.760;9.178;2023-03-16T05:02:51;-1.40;99.90
37240;DHT22;23130;48.760;9.178;2023-03-16T05:05:17;-1.30;99.90
37240;DHT22;23130;48.760;9.178;2023-03-16T05:07:44;-1.30;99.90
37240;DHT22;23130;48.760;9.178;2023-03-16T05:10:11;-1.30;99.90
37240;DHT22;23130;48.760;9.178;2023-03-16T05:12:37;-1.30;99.90
37240;DHT22;23130;48.760;9.178;2023-03-16T05:15:03;-1.40;99.90
37240;DHT22;23130;48.760;9.178;2023-03-16T05:17:29;-1.40;99.90
37240;DHT22;23130;48.760;9.178;2023-03-16T05:19:55;-1.40;99.90
37240;DHT22;23130;48.760;9.178;2023-03-16T05:22:20;-1.40;99.90
37240;DHT22;23130;48.760;9.178;2023-03-16T05:24:46;-1.40;99.90
37240;DHT22;23130;48.760;9.178;2023-03-16T05:27:11;-1.50;99.90
37240;DHT22;23130;48.760;9.178;2023-03-16T05:29:37;-1.60;99.90
37240;DHT22;23130;48.760;9.178;2023-03-16T05:32:04;-1.50;99.90
37240;DHT22;23130;48.760;9.178;2023-03-16T05:34:30;-1.50;99.90
37240;DHT22;23130;48.760;9.178;2023-03-16T05:36:56;-1.50;99.90
37240;DHT22;23130;48.760;9.178;2023-03-16T05:39:22;-1.40;99.90
37240;DHT22;23130;48.760;9.178;2023-03-16T05:41:48;-1.40;99.90
37240;DHT22;23130;48.760;9.178;2023-03-16T05:44:13;-1.40;99.90
37240;DHT22;23130;48.760;9.178;2023-03-16T05:46:39;-1.30;99.90
37240;DHT22;23130;48.760;9.178;2023-03-16T05:49:04;-1.30;99.90
37240;DHT22;23130;48.760;9.178;2023-03-16T05:51:30;-1.30;99.90
37240;DHT22;23130;48.760;9.178;2023-03-16T05:53:56;-1.20;99.90
37240;DHT22;23130;48.760;9.178;2023-03-16T05:56:23;-1.10;99.90
37240;DHT22;23130;48.760;9.178;2023-03-16T05:58:53;-1.00;99.90
37240;DHT22;23130;48.760;9.178;2023-03-16T06:01:20;-0.90;99.90
37240;DHT22;23130;48.760;9.178;2023-03-16T06:03:46;-0.80;99.90
37240;DHT22;23130;48.760;9.178;2023-03-16T06:06:14;-0.70;99.90
37240;DHT22;23130;48.760;9.178;2023-03-16T06:08:40;-0.70;99.90
37240;DHT22;23130;48.760;9.178;2023-03-16T06:11:06;-0.60;99.90
37240;DHT22;23130;48.760;9.178;2023-03-16T06:13:32;-0.50;99.90
37240;DHT22;23130;48.760;9.178;2023-03-16T06:15:57;-0.50;99.90
37240;DHT22;23130;48.760;9.178;2023-03-16T06:18:23;-0.50;99.90
37240;DHT22;23130;48.760;9.178;2023-03-16T06:20:48;-0.50;99.90
37240;DHT22;23130;48.760;9.178;2023-03-16T06:23:14;-0.40;99.90
37240;DHT22;23130;48.760;9.178;2023-03-16T06:25:40;-0.30;99.90
37240;DHT22;23130;48.760;9.178;2023-03-16T06:28:06;-0.30;99.90
37240;DHT22;23130;48.760;9.178;2023-03-16T06:30:31;-0.20;99.90
37240;DHT22;23130;48.760;9.178;2023-03-16T06:32:57;-0.20;99.90
37240;DHT22;23130;48.760;9.178;2023-03-16T06:35:25;-0.20;99.90
37240;DHT22;23130;48.760;9.178;2023-03-16T06:37:50;-0.10;99.90
37240;DHT22;23130;48.760;9.178;2023-03-16T06:40:16;-0.10;99.90
37240;DHT22;23130;48.760;9.178;2023-03-16T06:42:42;-0.10;99.90
37240;DHT22;23130;48.760;9.178;2023-03-16T06:45:08;0.00;99.90
37240;DHT22;23130;48.760;9.178;2023-03-16T06:47:35;0.00;99.90
37240;DHT22;23130;48.760;9.178;2023-03-16T06:50:01;0.00;99.90
37240;DHT22;23130;48.760;9.178;2023-03-16T06:52:26;0.10;99.90
37240;DHT22;23130;48.760;9.178;2023-03-16T06:54:52;0.30;99.90
37240;DHT22;23130;48.760;9.178;2023-03-16T06:57:18;0.50;99.90
37240;DHT22;23130;48.760;9.178;2023-03-16T06:59:43;1.00;99.90
37240;DHT22;23130;48.760;9.178;2023-03-16T07:02:11;1.30;99.90
37240;DHT22;23130;48.760;9.178;2023-03-16T07:04:38;1.50;99.90
37240;DHT22;23130;48.760;9.178;2023-03-16T07:07:03;1.90;99.90
37240;DHT22;23130;48.760;9.178;2023-03-16T07:09:29;2.30;99.90
37240;DHT22;23130;48.760;9.178;2023-03-16T07:11:56;2.60;99.90
37240;DHT22;23130;48.760;9.178;2023-03-16T07:14:21;2.50;99.90
37240;DHT22;23130;48.760;9.178;2023-03-16T07:16:49;2.60;99.90
37240;DHT22;23130;48.760;9.178;2023-03-16T07:19:14;2.50;99.90
37240;DHT22;23130;48.760;9.178;2023-03-16T07:21:40;2.40;99.90
37240;DHT22;23130;48.760;9.178;2023-03-16T07:24:07;2.20;99.90
37240;DHT22;23130;48.760;9.178;2023-03-16T07:26:34;2.30;99.90
37240;DHT22;23130;48.760;9.178;2023-03-16T07:28:59;2.20;99.90
37240;DHT22;23130;48.760;9.178;2023-03-16T07:31:25;2.20;99.90
37240;DHT22;23130;48.760;9.178;2023-03-16T07:33:51;2.30;99.90
37240;DHT22;23130;48.760;9.178;2023-03-16T07:36:16;2.40;99.90
37240;DHT22;23130;48.760;9.178;2023-03-16T07:38:42;2.30;99.90
37240;DHT22;23130;48.760;9.178;2023-03-16T07:41:08;2.40;99.90
37240;DHT22;23130;48.760;9.178;2023-03-16T07:43:34;2.40;99.90
37240;DHT22;23130;48.760;9.178;2023-03-16T07:45:59;2.30;99.90
37240;DHT22;23130;48.760;9.178;2023-03-16T07:48:26;2.40;99.90
37240;DHT22;23130;48.760;9.178;2023-03-16T07:50:52;2.40;99.90
37240;DHT22;23130;48.760;9.178;2023-03-16T07:53:18;2.40;99.90
37240;DHT22;23130;48.760;9.178;2023-03-16T07:55:45;2.50;99.90
37240;DHT22;23130;48.760;9.178;2023-03-16T07:58:11;2.50;99.90
37240;DHT22;23130;48.760;9.178;2023-03-16T08:00:37;2.60;99.90
37240;DHT22;23130;48.760;9.178;2023-03-16T08:03:03;2.60;99.90
37240;DHT22;23130;48.760;9.178;2023-03-16T08:05:29;2.70;99.90
37240;DHT22;23130;48.760;9.178;2023-03-16T08:07:57;2.70;99.90
37240;DHT22;23130;48.760;9.178;2023-03-16T08:10:23;2.70;99.90
37240;DHT22;23130;48.760;9.178;2023-03-16T08:12:49;2.80;99.90
37240;DHT22;23130;48.760;9.178;2023-03-16T08:15:16;2.80;99.90
37240;DHT22;23130;48.760;9.178;2023-03-16T08:17:42;2.90;99.90
37240;DHT22;23130;48.760;9.178;2023-03-16T08:20:08;2.90;99.90
37240;DHT22;23130;48.760;9.178;2023-03-16T08:22:36;2.90;99.90
37240;DHT22;23130;48.760;9.178;2023-03-16T08:25:03;3.00;99.90
37240;DHT22;23130;48.760;9.178;2023-03-16T08:27:30;3.00;99.90
37240;DHT22;23130;48.760;9.178;2023-03-16T08:29:56;3.10;99.90
37240;DHT22;23130;48.760;9.178;2023-03-16T08:32:21;3.20;99.90
37240;DHT22;23130;48.760;9.178;2023-03-16T08:34:47;3.30;99.90
37240;DHT22;23130;48.760;9.178;2023-03-16T08:37:13;3.30;99.90
37240;DHT22;23130;48.760;9.178;2023-03-16T08:39:39;3.30;99.90
37240;DHT22;23130;48.760;9.178;2023-03-16T08:42:06;3.40;99.90
37240;DHT22;23130;48.760;9.178;2023-03-16T08:44:32;3.50;99.90
37240;DHT22;23130;48.760;9.178;2023-03-16T08:46:58;3.60;99.90
37240;DHT22;23130;48.760;9.178;2023-03-16T08:49:25;3.70;99.90
37240;DHT22;23130;48.760;9.178;2023-03-16T08:51:51;3.80;99.90
37240;DHT22;23130;48.760;9.178;2023-03-16T08:54:19;3.80;99.90
37240;DHT22;23130;48.760;9.178;2023-03-16T08:56:45;3.90;99.90
37240;DHT22;23130;48.760;9.178;2023-03-16T08:59:10;4.00;99.90
37240;DHT22;23130;48.760;9.178;2023-03-16T09:01:36;4.10;99.90
37240;DHT22;23130;48.760;9.178;2023-03-16T09:04:02;4.20;99.90
37240;DHT22;23130;48.760;9.178;2023-03-16T09:06:28;4.30;99.90
37240;DHT22;23130;48.760;9.178;2023-03-16T09:08:53;4.30;99.90
37240;DHT22;23130;48.760;9.178;2023-03-16T09:11:20;4.40;99.90
37240;DHT22;23130;48.760;9.178;2023-03-16T09:13:46;4.50;99.90
37240;DHT22;23130;48.760;9.178;2023-03-16T09:16:13;4.50;99.90
37240;DHT22;23130;48.760;9.178;2023-03-16T09:18:40;4.50;99.90
37240;DHT22;23130;48.760;9.178;2023-03-16T09:21:08;4.60;99.90
37240;DHT22;23130;48.760;9.178;2023-03-16T09:23:35;4.70;99.90
37240;DHT22;23130;48.760;9.178;2023-03-16T09:26:06;4.70;99.90
37240;DHT22;23130;48.760;9.178;2023-03-16T09:28:33;4.90;99.90
37240;DHT22;23130;48.760;9.178;2023-03-16T09:31:00;5.00;99.90
37240;DHT22;23130;48.760;9.178;2023-03-16T09:33:26;5.10;99.90
37240;DHT22;23130;48.760;9.178;2023-03-16T09:35:56;5.30;99.90
37240;DHT22;23130;48.760;9.178;2023-03-16T09:38:23;5.60;99.90
37240;DHT22;23130;48.760;9.178;2023-03-16T09:41:07;5.70;99.90
37240;DHT22;23130;48.760;9.178;2023-03-16T09:46:56;6.20;99.90
37240;DHT22;23130;48.760;9.178;2023-03-16T09:49:27;6.60;99.90
37240;DHT22;23130;48.760;9.178;2023-03-16T09:52:26;6.60;99.90
37240;DHT22;23130;48.760;9.178;2023-03-16T09:55:30;6.70;99.90
37240;DHT22;23130;48.760;9.178;2023-03-16T09:57:57;7.00;99.90
37240;DHT22;23130;48.760;9.178;2023-03-16T10:00:25;7.10;99.90
37240;DHT22;23130;48.760;9.178;2023-03-16T10:05:30;7.30;99.90
37240;DHT22;23130;48.760;9.178;2023-03-16T10:08:13;7.40;99.90
37240;DHT22;23130;48.760;9.178;2023-03-16T10:15:56;7.70;99.90
37240;DHT22;23130;48.760;9.178;2023-03-16T10:18:29;7.70;99.90
37240;DHT22;23130;48.760;9.178;2023-03-16T10:20:57;7.80;99.90
37240;DHT22;23130;48.760;9.178;2023-03-16T10:23:25;8.00;99.90
37240;DHT22;23130;48.760;9.178;2023-03-16T10:25:54;8.20;99.90
37240;DHT22;23130;48.760;9.178;2023-03-16T10:28:27;8.40;99.90
37240;DHT22;23130;48.760;9.178;2023-03-16T10:30:58;8.70;99.90
37240;DHT22;23130;48.760;9.178;2023-03-16T10:33:26;8.70;99.90
37240;DHT22;23130;48.760;9.178;2023-03-16T10:36:00;8.90;99.90
37240;DHT22;23130;48.760;9.178;2023-03-16T10:43:51;9.20;99.90
37240;DHT22;23130;48.760;9.178;2023-03-16T10:46:17;9.40;99.90
37240;DHT22;23130;48.760;9.178;2023-03-16T10:48:57;9.30;99.90
37240;DHT22;23130;48.760;9.178;2023-03-16T10:51:36;9.30;99.90
37240;DHT22;23130;48.760;9.178;2023-03-16T10:54:24;9.30;99.90
37240;DHT22;23130;48.760;9.178;2023-03-16T10:56:51;9.40;99.90
37240;DHT22;23130;48.760;9.178;2023-03-16T11:01:54;9.30;99.90
37240;DHT22;23130;48.760;9.178;2023-03-16T11:04:20;9.30;99.90
37240;DHT22;23130;48.760;9.178;2023-03-16T11:06:54;9.40;99.90
37240;DHT22;23130;48.760;9.178;2023-03-16T11:09:30;9.40;99.90
37240;DHT22;23130;48.760;9.178;2023-03-16T11:11:57;9.30;99.90
37240;DHT22;23130;48.760;9.178;2023-03-16T11:14:27;9.40;99.90
37240;DHT22;23130;48.760;9.178;2023-03-16T11:17:02;9.30;99.90
37240;DHT22;23130;48.760;9.178;2023-03-16T11:19:32;9.30;99.90
37240;DHT22;23130;48.760;9.178;2023-03-16T11:22:13;9.40;99.90
37240;DHT22;23130;48.760;9.178;2023-03-16T11:25:36;9.40;99.90
37240;DHT22;23130;48.760;9.178;2023-03-16T11:30:46;9.50;99.90
37240;DHT22;23130;48.760;9.178;2023-03-16T11:33:16;9.50;99.90
37240;DHT22;23130;48.760;9.178;2023-03-16T11:36:12;9.70;99.90
37240;DHT22;23130;48.760;9.178;2023-03-16T11:44:18;10.00;99.90
37240;DHT22;23130;48.760;9.178;2023-03-16T11:47:02;10.10;99.90
37240;DHT22;23130;48.760;9.178;2023-03-16T11:49:52;10.20;99.90
37240;DHT22;23130;48.760;9.178;2023-03-16T11:55:47;10.30;99.90
37240;DHT22;23130;48.760;9.178;2023-03-16T12:03:47;10.20;99.90
37240;DHT22;23130;48.760;9.178;2023-03-16T12:17:43;10.70;99.90
37240;DHT22;23130;48.760;9.178;2023-03-16T12:20:17;10.80;99.90
37240;DHT22;23130;48.760;9.178;2023-03-16T12:23:09;10.70;99.90
37240;DHT22;23130;48.760;9.178;2023-03-16T12:25:41;10.70;99.90
37240;DHT22;23130;48.760;9.178;2023-03-16T12:28:22;10.60;99.90
37240;DHT22;23130;48.760;9.178;2023-03-16T12:31:14;10.70;99.90
37240;DHT22;23130;48.760;9.178;2023-03-16T12:33:57;10.80;99.90
37240;DHT22;23130;48.760;9.178;2023-03-16T12:39:15;11.40;99.90
37240;DHT22;23130;48.760;9.178;2023-03-16T12:44:44;11.80;99.90
37240;DHT22;23130;48.760;9.178;2023-03-16T12:47:24;12.00;99.90
37240;DHT22;23130;48.760;9.178;2023-03-16T12:49:52;12.30;99.90
37240;DHT22;23130;48.760;9.178;2023-03-16T12:52:18;12.40;99.90
37240;DHT22;23130;48.760;9.178;2023-03-16T12:55:06;12.60;99.90
37240;DHT22;23130;48.760;9.178;2023-03-16T12:57:32;12.70;99.90
37240;DHT22;23130;48.760;9.178;2023-03-16T12:59:59;12.70;99.90
37240;DHT22;23130;48.760;9.178;2023-03-16T13:02:31;12.70;99.70
37240;DHT22;23130;48.760;9.178;2023-03-16T13:05:09;12.80;99.90
37240;DHT22;23130;48.760;9.178;2023-03-16T13:07:36;12.70;98.50
37240;DHT22;23130;48.760;9.178;2023-03-16T13:10:09;12.50;98.80
37240;DHT22;23130;48.760;9.178;2023-03-16T13:12:38;12.30;98.40
37240;DHT22;23130;48.760;9.178;2023-03-16T13:15:29;12.00;98.80
37240;DHT22;23130;48.760;9.178;2023-03-16T13:20:56;11.50;99.90
37240;DHT22;23130;48.760;9.178;2023-03-16T13:26:16;11.40;99.90
37240;DHT22;23130;48.760;9.178;2023-03-16T13:28:50;11.40;99.90
37240;DHT22;23130;48.760;9.178;2023-03-16T13:31:35;11.60;99.90
37240;DHT22;23130;48.760;9.178;2023-03-16T13:34:04;11.70;99.90
37240;DHT22;23130;48.760;9.178;2023-03-16T13:36:31;11.60;99.70
37240;DHT22;23130;48.760;9.178;2023-03-16T13:44:38;11.50;98.60
37240;DHT22;23130;48.760;9.178;2023-03-16T13:47:05;11.50;99.70
37240;DHT22;23130;48.760;9.178;2023-03-16T13:49:32;11.50;99.40
37240;DHT22;23130;48.760;9.178;2023-03-16T13:51:58;11.50;99.30
37240;DHT22;23130;48.760;9.178;2023-03-16T13:54:24;11.60;99.40
37240;DHT22;23130;48.760;9.178;2023-03-16T13:56:54;11.60;96.90
37240;DHT22;23130;48.760;9.178;2023-03-16T13:59:21;11.60;97.20
37240;DHT22;23130;48.760;9.178;2023-03-16T14:01:47;11.80;95.70
37240;DHT22;23130;48.760;9.178;2023-03-16T14:04:14;11.90;95.80
37240;DHT22;23130;48.760;9.178;2023-03-16T14:06:55;12.10;96.10
37240;DHT22;23130;48.760;9.178;2023-03-16T14:09:23;12.30;95.60
37240;DHT22;23130;48.760;9.178;2023-03-16T14:11:50;12.50;94.60
37240;DHT22;23130;48.760;9.178;2023-03-16T14:14:22;12.60;95.70
37240;DHT22;23130;48.760;9.178;2023-03-16T14:16:48;12.70;93.80
37240;DHT22;23130;48.760;9.178;2023-03-16T14:19:17;12.70;94.90
37240;DHT22;23130;48.760;9.178;2023-03-16T14:21:45;12.70;93.30
37240;DHT22;23130;48.760;9.178;2023-03-16T14:24:30;12.50;93.10
37240;DHT22;23130;48.760;9.178;2023-03-16T14:27:13;12.50;93.70
37240;DHT22;23130;48.760;9.178;2023-03-16T14:29:41;12.50;93.10
37240;DHT22;23130;48.760;9.178;2023-03-16T14:32:20;12.40;93.70
37240;DHT22;23130;48.760;9.178;2023-03-16T14:34:48;12.30;94.70
37240;DHT22;23130;48.760;9.178;2023-03-16T14:37:15;12.50;94.80
37240;DHT22;23130;48.760;9.178;2023-03-16T14:39:45;12.60;94.30
37240;DHT22;23130;48.760;9.178;2023-03-16T14:42:17;12.60;94.70
37240;DHT22;23130;48.760;9.178;2023-03-16T14:44:44;12.60;94.80
37240;DHT22;23130;48.760;9.178;2023-03-16T14:47:20;12.60;93.90
37240;DHT22;23130;48.760;9.178;2023-03-16T14:49:46;12.70;92.90
37240;DHT22;23130;48.760;9.178;2023-03-16T14:52:24;12.70;93.00
37240;DHT22;23130;48.760;9.178;2023-03-16T14:54:51;12.70;93.10
37240;DHT22;23130;48.760;9.178;2023-03-16T14:57:20;12.80;93.10
37240;DHT22;23130;48.760;9.178;2023-03-16T14:59:46;12.70;93.60
37240;DHT22;23130;48.760;9.178;2023-03-16T15:02:31;12.60;93.70
37240;DHT22;23130;48.760;9.178;2023-03-16T15:04:59;12.50;93.40
37240;DHT22;23130;48.760;9.178;2023-03-16T15:07:30;12.50;93.50
37240;DHT22;23130;48.760;9.178;2023-03-16T15:12:58;12.50;93.70
37240;DHT22;23130;48.760;9.178;2023-03-16T15:15:29;12.60;91.70
37240;DHT22;23130;48.760;9.178;2023-03-16T15:17:55;12.60;91.80
37240;DHT22;23130;48.760;9.178;2023-03-16T15:20:31;12.70;91.80
37240;DHT22;23130;48.760;9.178;2023-03-16T15:22:59;12.60;92.30
37240;DHT22;23130;48.760;9.178;2023-03-16T15:28:01;12.60;91.60
37240;DHT22;23130;48.760;9.178;2023-03-16T15:30:27;12.70;91.70
37240;DHT22;23130;48.760;9.178;2023-03-16T15:32:55;12.70;92.10
37240;DHT22;23130;48.760;9.178;2023-03-16T15:35:21;12.70;91.40
37240;DHT22;23130;48.760;9.178;2023-03-16T15:37:47;12.70;91.30
37240;DHT22;23130;48.760;9.178;2023-03-16T15:40:24;12.60;91.70
37240;DHT22;23130;48.760;9.178;2023-03-16T15:42:51;12.60;91.50
37240;DHT22;23130;48.760;9.178;2023-03-16T15:45:19;12.50;91.30
37240;DHT22;23130;48.760;9.178;2023-03-16T15:47:51;12.40;90.80
37240;DHT22;23130;48.760;9.178;2023-03-16T15:50:19;12.40;91.50
37240;DHT22;23130;48.760;9.178;2023-03-16T15:52:49;12.30;91.10
37240;DHT22;23130;48.760;9.178;2023-03-16T15:55:22;12.30;91.40
37240;DHT22;23130;48.760;9.178;2023-03-16T15:57:54;12.30;90.90
37240;DHT22;23130;48.760;9.178;2023-03-16T16:00:32;12.10;91.90
37240;DHT22;23130;48.760;9.178;2023-03-16T16:02:59;12.00;91.90
37240;DHT22;23130;48.760;9.178;2023-03-16T16:05:26;12.00;91.90
37240;DHT22;23130;48.760;9.178;2023-03-16T16:07:52;12.00;92.70
37240;DHT22;23130;48.760;9.178;2023-03-16T16:10:19;11.90;92.50
37240;DHT22;23130;48.760;9.178;2023-03-16T16:12:46;11.80;92.20
37240;DHT22;23130;48.760;9.178;2023-03-16T16:15:35;11.70;92.30
37240;DHT22;23130;48.760;9.178;2023-03-16T16:18:28;11.70;92.50
37240;DHT22;23130;48.760;9.178;2023-03-16T16:20:57;11.60;92.80
37240;DHT22;23130;48.760;9.178;2023-03-16T16:23:23;11.50;92.90
37240;DHT22;23130;48.760;9.178;2023-03-16T16:25:51;11.50;93.10
37240;DHT22;23130;48.760;9.178;2023-03-16T16:28:24;11.40;93.20
37240;DHT22;23130;48.760;9.178;2023-03-16T16:30:51;11.30;93.90
37240;DHT22;23130;48.760;9.178;2023-03-16T16:33:25;11.30;93.80
37240;DHT22;23130;48.760;9.178;2023-03-16T16:35:53;11.20;93.90
37240;DHT22;23130;48.760;9.178;2023-03-16T16:38:19;11.10;94.50
37240;DHT22;23130;48.760;9.178;2023-03-16T16:40:45;11.00;94.40
37240;DHT22;23130;48.760;9.178;2023-03-16T16:43:31;10.90;94.80
37240;DHT22;23130;48.760;9.178;2023-03-16T16:46:04;10.80;95.10
37240;DHT22;23130;48.760;9.178;2023-03-16T16:48:32;10.60;95.20
37240;DHT22;23130;48.760;9.178;2023-03-16T16:50:59;10.50;95.50
37240;DHT22;23130;48.760;9.178;2023-03-16T16:53:25;10.40;95.90
37240;DHT22;23130;48.760;9.178;2023-03-16T16:55:52;10.30;96.30
37240;DHT22;23130;48.760;9.178;2023-03-16T16:58:17;10.20;96.90
37240;DHT22;23130;48.760;9.178;2023-03-16T17:00:45;10.20;97.40
37240;DHT22;23130;48.760;9.178;2023-03-16T17:03:20;10.00;97.80
37240;DHT22;23130;48.760;9.178;2023-03-16T17:05:46;9.80;97.80
37240;DHT22;23130;48.760;9.178;2023-03-16T17:08:11;9.60;98.30
37240;DHT22;23130;48.760;9.178;2023-03-16T17:10:38;9.60;98.80